Time;durP1;ratioP1;P1;durP2;ratioP2;P2;SDS_P1;SDS_P2;PMS_P1;PMS_P2;Temp;Humidity;BMP_temperature;BMP_pressure;BME280_temperature;BME280_humidity;BME280_pressure;Samples;Min_cycle;Max_cycle;Signal;HPM_P1;HPM_P2
2022/03/14 00:00:10;;;;;;;21.30;9.97;;;;;;;3.56;100.00;101805.59;5053817;28;20712;-73
2022/03/14 00:02:39;;;;;;;19.70;10.30;;;;;;;3.59;100.00;101818.66;5059429;28;20238;-74
2022/03/14 00:05:06;;;;;;;19.37;9.93;;;;;;;3.57;100.00;101804.84;5054763;28;20188;-74
2022/03/14 00:07:37;;;;;;;19.80;9.87;;;;;;;3.45;100.00;101795.50;5053484;28;20226;-74
2022/03/14 00:10:04;;;;;;;20.37;11.47;;;;;;;3.60;100.00;101820.44;5072805;28;20226;-73
2022/03/14 00:12:31;;;;;;;21.53;9.43;;;;;;;3.55;100.00;101814.06;5068741;28;20591;-73
2022/03/14 00:14:59;;;;;;;18.80;9.00;;;;;;;3.57;100.00;101817.66;5053579;28;20206;-73
2022/03/14 00:17:27;;;;;;;43.47;17.93;;;;;;;3.55;100.00;101826.91;5062713;28;20633;-73
2022/03/14 00:19:59;;;;;;;15.90;10.50;;;;;;;3.50;100.00;101822.34;5073452;28;20199;-73
2022/03/14 00:22:26;;;;;;;15.80;9.33;;;;;;;3.30;100.00;101826.81;5067133;28;20199;-75
2022/03/14 00:24:53;;;;;;;13.27;8.43;;;;;;;3.26;100.00;101825.72;5053392;28;20196;-73
2022/03/14 00:27:20;;;;;;;14.57;8.13;;;;;;;3.16;100.00;101838.66;5053324;28;20226;-74
2022/03/14 00:29:47;;;;;;;15.80;7.93;;;;;;;3.15;100.00;101833.41;5064032;28;20194;-73
2022/03/14 00:32:14;;;;;;;15.07;9.20;;;;;;;3.13;100.00;101825.63;5062661;28;20191;-73
2022/03/14 00:34:41;;;;;;;13.10;9.73;;;;;;;3.04;100.00;101822.38;5054453;28;20199;-74
2022/03/14 00:37:09;;;;;;;15.37;8.90;;;;;;;3.14;100.00;101832.50;5054194;28;20199;-73
2022/03/14 00:39:36;;;;;;;16.57;8.47;;;;;;;3.13;100.00;101838.44;5056840;28;20190;-73
2022/03/14 00:42:03;;;;;;;15.17;8.43;;;;;;;3.17;100.00;101832.75;5072287;28;20256;-74
2022/03/14 00:44:30;;;;;;;19.17;9.17;;;;;;;3.15;100.00;101831.75;5064498;28;20195;-74
2022/03/14 00:46:57;;;;;;;16.83;9.27;;;;;;;3.20;100.00;101832.97;5073253;28;20339;-73
2022/03/14 00:49:24;;;;;;;19.40;9.93;;;;;;;3.23;100.00;101829.72;5060529;28;20190;-73
2022/03/14 00:51:51;;;;;;;19.60;10.97;;;;;;;3.13;100.00;101807.69;5072802;28;20194;-73
2022/03/14 00:54:19;;;;;;;20.40;10.97;;;;;;;3.08;100.00;101796.19;5056155;28;20199;-76
2022/03/14 00:56:46;;;;;;;33.97;13.67;;;;;;;3.28;100.00;101823.28;5069486;28;20191;-74
2022/03/14 00:59:13;;;;;;;33.57;14.67;;;;;;;3.32;100.00;101830.38;5062387;28;20199;-74
2022/03/14 01:01:40;;;;;;;39.07;15.57;;;;;;;3.32;100.00;101831.28;5052841;28;20223;-74
2022/03/14 01:04:06;;;;;;;36.13;15.83;;;;;;;3.37;100.00;101829.03;5067212;28;20649;-74
2022/03/14 01:06:34;;;;;;;31.93;15.53;;;;;;;3.28;100.00;101808.75;5071854;28;20685;-74
2022/03/14 01:09:01;;;;;;;38.97;16.93;;;;;;;3.46;100.00;101825.47;5072482;28;20187;-74
2022/03/14 01:11:29;;;;;;;33.10;15.97;;;;;;;3.49;100.00;101830.81;5064126;28;20227;-74
2022/03/14 01:13:56;;;;;;;30.50;15.40;;;;;;;3.46;100.00;101829.72;5060729;28;20198;-74
2022/03/14 01:16:23;;;;;;;31.57;13.97;;;;;;;3.43;100.00;101830.38;5072577;28;20229;-74
2022/03/14 01:18:49;;;;;;;25.00;13.87;;;;;;;3.40;100.00;101829.25;5070337;28;20195;-75
2022/03/14 01:21:16;;;;;;;23.77;13.20;;;;;;;3.36;100.00;101835.84;5071923;28;20206;-74
2022/03/14 01:23:43;;;;;;;19.03;11.57;;;;;;;3.36;100.00;101835.84;5062996;28;20260;-74
2022/03/14 01:26:10;;;;;;;22.07;11.87;;;;;;;3.16;100.00;101801.88;5072521;28;20590;-74
2022/03/14 01:28:38;;;;;;;20.80;11.13;;;;;;;3.37;100.00;101834.19;5064510;28;20325;-74
2022/03/14 01:31:05;;;;;;;20.33;11.67;;;;;;;3.31;100.00;101834.66;5051988;28;20191;-74
2022/03/14 01:33:31;;;;;;;22.47;11.43;;;;;;;3.31;100.00;101834.66;5056197;28;20187;-75
2022/03/14 01:35:58;;;;;;;21.73;11.67;;;;;;;3.30;100.00;101842.22;5068149;28;20661;-74
2022/03/14 01:38:25;;;;;;;18.00;12.03;;;;;;;3.30;100.00;101842.22;5058900;28;20195;-74
2022/03/14 01:40:53;;;;;;;15.17;9.63;;;;;;;3.31;100.00;101846.56;5071705;28;20202;-75
2022/03/14 01:43:20;;;;;;;15.53;9.37;;;;;;;3.15;100.00;101818.03;5066967;28;20191;-74
2022/03/14 01:45:49;;;;;;;18.33;9.17;;;;;;;3.31;100.00;101849.13;5045938;28;20250;-74
2022/03/14 01:48:16;;;;;;;14.90;9.27;;;;;;;3.24;100.00;101845.25;5065155;28;20705;-74
2022/03/14 01:50:44;;;;;;;15.63;9.17;;;;;;;3.20;100.00;101850.91;5051831;28;20196;-74
2022/03/14 01:53:12;;;;;;;16.83;10.30;;;;;;;3.20;100.00;101857.72;5056739;28;20198;-73
2022/03/14 01:55:39;;;;;;;19.27;10.73;;;;;;;3.02;100.00;101823.94;5062158;28;20195;-73
2022/03/14 01:58:06;;;;;;;22.13;11.50;;;;;;;3.18;100.00;101862.72;5056125;28;20186;-73
2022/03/14 02:00:33;;;;;;;19.80;11.40;;;;;;;3.17;100.00;101860.94;5059039;28;20206;-73
2022/03/14 02:03:01;;;;;;;22.23;11.30;;;;;;;3.08;100.00;101838.88;5067798;28;20693;-74
2022/03/14 02:05:28;;;;;;;18.20;10.90;;;;;;;3.15;100.00;101854.81;5051598;28;20219;-73
2022/03/14 02:07:57;;;;;;;17.27;10.63;;;;;;;3.17;100.00;101857.50;5051967;28;20218;-74
2022/03/14 02:10:23;;;;;;;15.67;10.90;;;;;;;3.14;100.00;101860.69;5051601;28;20210;-74
2022/03/14 02:12:50;;;;;;;17.57;10.60;;;;;;;3.09;100.00;101864.63;5053388;28;20200;-73
2022/03/14 02:15:17;;;;;;;20.23;10.77;;;;;;;3.02;100.00;101848.69;5060493;28;20644;-74
2022/03/14 02:17:44;;;;;;;17.43;10.60;;;;;;;2.99;100.00;101857.03;5069609;28;20207;-73
2022/03/14 02:20:12;;;;;;;26.53;13.60;;;;;;;3.07;100.00;101863.59;5051511;28;20689;-73
2022/03/14 02:22:39;;;;;;;25.83;12.83;;;;;;;3.05;100.00;101867.72;5051470;28;20191;-75
2022/03/14 02:25:09;;;;;;;23.80;13.57;;;;;;;3.05;100.00;101872.84;5036247;28;20221;-73
2022/03/14 02:27:37;;;;;;;25.83;13.47;;;;;;;2.96;100.00;101872.19;5070148;28;20226;-73
2022/03/14 02:30:05;;;;;;;23.90;13.17;;;;;;;2.94;100.00;101881.41;5059159;28;20228;-73
2022/03/14 02:32:32;;;;;;;22.87;13.13;;;;;;;2.88;100.00;101871.63;5065561;28;20206;-73
2022/03/14 02:34:59;;;;;;;18.07;11.87;;;;;;;2.84;100.00;101868.72;5073755;28;20226;-73
2022/03/14 02:37:27;;;;;;;19.63;11.43;;;;;;;2.71;100.00;101860.91;5075453;28;20201;-73
2022/03/14 02:39:54;;;;;;;27.70;12.37;;;;;;;2.70;100.00;101877.94;5064364;28;20196;-74
2022/03/14 02:42:21;;;;;;;19.90;11.93;;;;;;;2.37;100.00;101843.00;5054808;28;20198;-73
2022/03/14 02:44:47;;;;;;;19.47;10.83;;;;;;;2.35;100.00;101854.81;5071463;28;20229;-73
2022/03/14 02:47:15;;;;;;;22.27;12.60;;;;;;;2.49;100.00;101889.13;5075215;28;20279;-73
2022/03/14 02:49:42;;;;;;;24.50;12.67;;;;;;;2.40;100.00;101884.19;5065002;28;20210;-73
2022/03/14 02:52:08;;;;;;;23.87;12.70;;;;;;;2.37;100.00;101889.06;5075151;28;20195;-73
2022/03/14 02:54:37;;;;;;;22.97;13.03;;;;;;;2.39;100.00;101891.75;5074862;28;20191;-73
2022/03/14 02:57:04;;;;;;;24.40;12.47;;;;;;;2.32;100.00;101885.25;5073273;28;20195;-73
2022/03/14 02:59:31;;;;;;;23.47;12.47;;;;;;;2.28;100.00;101887.50;5061654;28;20206;-73
2022/03/14 03:01:58;;;;;;;26.93;13.37;;;;;;;2.21;100.00;101886.09;5074778;28;20709;-73
2022/03/14 03:04:25;;;;;;;23.90;13.70;;;;;;;2.17;100.00;101889.22;5074812;28;20197;-73
2022/03/14 03:06:53;;;;;;;24.73;13.93;;;;;;;2.11;100.00;101893.84;5070327;28;20192;-73
2022/03/14 03:09:19;;;;;;;27.10;13.80;;;;;;;2.09;100.00;101895.41;5059501;28;20628;-73
2022/03/14 03:11:48;;;;;;;26.73;14.53;;;;;;;2.08;100.00;101893.63;5066931;28;20623;-74
2022/03/14 03:14:15;;;;;;;31.80;14.47;;;;;;;2.10;100.00;101902.31;5073579;28;20194;-73
2022/03/14 03:16:42;;;;;;;27.20;14.03;;;;;;;2.04;100.00;101895.81;5074700;28;20195;-73
2022/03/14 03:19:09;;;;;;;29.20;13.33;;;;;;;2.07;100.00;101907.16;5070752;28;20183;-73
2022/03/14 03:21:38;;;;;;;21.27;12.97;;;;;;;2.08;100.00;101908.97;5054641;28;20199;-73
2022/03/14 03:24:07;;;;;;;26.43;11.83;;;;;;;2.10;100.00;101922.78;5054848;28;20200;-74
2022/03/14 03:26:34;;;;;;;19.33;11.00;;;;;;;1.93;100.00;101897.53;5054960;28;20566;-74
2022/03/14 03:29:02;;;;;;;23.30;11.70;;;;;;;2.09;100.00;101921.00;5055109;28;20708;-73
2022/03/14 03:31:29;;;;;;;17.97;9.70;;;;;;;2.08;100.00;101926.88;5068087;28;20199;-73
2022/03/14 03:33:56;;;;;;;18.00;10.47;;;;;;;2.08;100.00;101924.31;5058028;28;20253;-73
2022/03/14 03:36:23;;;;;;;20.67;10.53;;;;;;;2.15;100.00;101923.13;5054708;28;20203;-73
2022/03/14 03:38:50;;;;;;;15.73;9.60;;;;;;;2.13;100.00;101937.47;5055455;28;20199;-74
2022/03/14 03:41:17;;;;;;;15.03;9.10;;;;;;;2.04;100.00;101922.28;5040717;28;20187;-73
2022/03/14 03:43:44;;;;;;;18.27;10.17;;;;;;;2.10;100.00;101932.13;5060917;28;20227;-73
2022/03/14 03:46:12;;;;;;;13.50;8.97;;;;;;;2.10;100.00;101944.91;5073807;28;20230;-73
2022/03/14 03:48:39;;;;;;;19.83;9.20;;;;;;;2.04;100.00;101942.75;5059397;28;20224;-73
2022/03/14 03:51:06;;;;;;;16.90;8.37;;;;;;;2.04;100.00;101946.97;5059687;28;20205;-73
2022/03/14 03:53:32;;;;;;;21.13;9.60;;;;;;;1.85;100.00;101919.06;5073541;28;20728;-73
2022/03/14 03:55:59;;;;;;;13.03;8.70;;;;;;;2.02;100.00;101951.97;5062322;28;20192;-73
2022/03/14 03:58:26;;;;;;;15.23;8.67;;;;;;;1.83;100.00;101924.06;5058994;28;20190;-72
2022/03/14 04:00:53;;;;;;;21.10;9.63;;;;;;;2.00;100.00;101956.06;5056296;28;20199;-73
2022/03/14 04:03:22;;;;;;;15.30;9.40;;;;;;;2.03;100.00;101958.91;5062461;28;20187;-73
2022/03/14 04:05:49;;;;;;;19.40;10.03;;;;;;;2.04;100.00;101965.78;5068777;28;20191;-73
2022/03/14 04:08:16;;;;;;;16.07;9.53;;;;;;;2.05;100.00;101966.66;5061746;28;20218;-73
2022/03/14 04:10:43;;;;;;;21.83;12.68;;;;;;;2.23;100.00;101963.00;5057470;28;20462;-73
2022/03/14 04:13:10;;;;;;;19.00;10.33;;;;;;;2.35;100.00;101976.75;5055580;28;20239;-73
2022/03/14 04:15:43;;;;;;;16.77;10.13;;;;;;;2.42;100.00;101953.44;5072312;28;20195;-73
2022/03/14 04:18:10;;;;;;;18.93;9.93;;;;;;;2.33;100.00;101947.56;5071740;28;20190;-73
2022/03/14 04:20:41;;;;;;;17.67;9.50;;;;;;;2.44;100.00;101970.69;5070618;28;20195;-74
2022/03/14 04:23:07;;;;;;;17.73;9.47;;;;;;;2.44;100.00;101982.59;5072916;28;20195;-73
2022/03/14 04:25:34;;;;;;;15.77;9.57;;;;;;;2.52;100.00;101985.75;5060174;28;20669;-72
2022/03/14 04:28:01;;;;;;;17.10;9.97;;;;;;;2.54;100.00;101985.06;5070126;28;20226;-73
2022/03/14 04:30:28;;;;;;;20.77;12.10;;;;;;;2.63;100.00;101997.72;5064660;28;20199;-71
2022/03/14 04:32:54;;;;;;;36.42;18.20;;;;;;;2.73;100.00;101997.63;5053766;28;20443;-72
2022/03/14 04:35:21;;;;;;;28.90;15.13;;;;;;;2.75;100.00;101999.53;5054055;28;20198;-73
2022/03/14 04:37:49;;;;;;;32.97;16.67;;;;;;;2.74;100.00;101990.09;5053142;28;20187;-72
2022/03/14 04:40:16;;;;;;;25.30;14.13;;;;;;;2.62;100.00;101995.91;5054505;28;20199;-72
2022/03/14 04:42:43;;;;;;;27.67;13.27;;;;;;;2.37;100.00;101991.47;5061785;28;20202;-72
2022/03/14 04:45:10;;;;;;;33.07;14.60;;;;;;;2.42;100.00;102000.41;5054062;28;20231;-72
2022/03/14 04:47:38;;;;;;;27.77;15.73;;;;;;;2.41;100.00;101993.50;5057745;28;20286;-72
2022/03/14 04:50:06;;;;;;;36.90;15.87;;;;;;;2.31;100.00;101973.06;5070728;28;20755;-71
2022/03/14 04:52:33;;;;;;;31.07;16.87;;;;;;;2.46;100.00;101997.28;5072359;28;20573;-72
2022/03/14 04:55:02;;;;;;;45.00;23.13;;;;;;;2.48;100.00;102008.56;5072027;28;20206;-72
2022/03/14 04:57:29;;;;;;;44.50;22.70;;;;;;;2.30;100.00;101966.16;5069491;28;20247;-72
2022/03/14 04:59:56;;;;;;;51.37;24.27;;;;;;;2.55;100.00;102007.34;5057312;28;20199;-72
2022/03/14 05:02:23;;;;;;;43.03;22.73;;;;;;;2.50;100.00;101977.94;5066743;28;20190;-72
2022/03/14 05:04:50;;;;;;;43.77;21.37;;;;;;;2.44;100.00;101975.81;5052596;28;20195;-72
2022/03/14 05:07:17;;;;;;;40.87;19.33;;;;;;;2.74;100.00;102009.69;5052438;28;20677;-72
2022/03/14 05:09:44;;;;;;;34.33;18.17;;;;;;;2.76;100.00;102014.13;5054692;28;20246;-71
2022/03/14 05:12:13;;;;;;;44.00;19.70;;;;;;;2.56;100.00;102023.63;5071692;28;20202;-72
2022/03/14 05:14:40;;;;;;;31.47;15.87;;;;;;;2.29;100.00;102030.91;5072299;28;20198;-72
2022/03/14 05:17:08;;;;;;;24.20;14.17;;;;;;;2.11;100.00;102036.22;5072032;28;20195;-72
2022/03/14 05:19:35;;;;;;;35.17;18.20;;;;;;;1.74;100.00;102006.81;5066204;28;20219;-72
2022/03/14 05:22:02;;;;;;;37.77;17.30;;;;;;;1.92;100.00;102033.88;5070161;28;20661;-71
2022/03/14 05:24:29;;;;;;;44.50;18.03;;;;;;;1.94;100.00;102050.22;5072154;28;20195;-73
2022/03/14 05:26:58;;;;;;;37.17;17.73;;;;;;;1.86;100.00;102012.91;5070880;28;20227;-71
2022/03/14 05:29:26;;;;;;;27.13;12.70;;;;;;;1.99;100.00;102023.38;5054486;28;20225;-72
2022/03/14 05:31:52;;;;;;;25.07;13.07;;;;;;;2.17;100.00;102047.88;5052121;28;20195;-72
2022/03/14 05:34:20;;;;;;;21.90;11.43;;;;;;;2.02;100.00;102040.63;5052104;28;20204;-71
2022/03/14 05:36:47;;;;;;;19.77;11.87;;;;;;;2.11;100.00;102054.13;5052130;28;20187;-71
2022/03/14 05:39:13;;;;;;;20.40;12.97;;;;;;;2.08;100.00;102054.78;5052411;28;20200;-72
2022/03/14 05:41:40;;;;;;;26.13;14.93;;;;;;;2.15;100.00;102059.63;5051845;28;20742;-72
2022/03/14 05:44:07;;;;;;;19.33;12.63;;;;;;;2.20;100.00;102068.59;5051535;28;20330;-72
2022/03/14 05:46:35;;;;;;;33.57;16.63;;;;;;;2.55;100.00;102067.91;5051639;28;20228;-71
2022/03/14 05:49:04;;;;;;;32.87;16.83;;;;;;;2.72;100.00;102067.53;5052220;28;20234;-72
2022/03/14 05:51:34;;;;;;;29.97;16.17;;;;;;;2.86;100.00;102067.84;5051734;28;20201;-72
2022/03/14 05:54:01;;;;;;;38.70;16.73;;;;;;;2.96;100.00;102074.59;5051805;28;20195;-72
2022/03/14 05:56:28;;;;;;;30.40;16.70;;;;;;;3.07;100.00;102078.84;5051955;28;20198;-71
2022/03/14 05:58:54;;;;;;;26.93;15.47;;;;;;;2.99;100.00;102079.94;5051682;28;20187;-73
2022/03/14 06:01:22;;;;;;;33.63;16.23;;;;;;;3.04;100.00;102094.00;5057052;28;20207;-72
2022/03/14 06:03:50;;;;;;;31.80;15.90;;;;;;;3.17;100.00;102096.75;5061109;28;20194;-72
2022/03/14 06:06:17;;;;;;;30.63;16.63;;;;;;;3.43;100.00;102099.59;5068538;28;20203;-74
2022/03/14 06:08:44;;;;;;;37.67;17.47;;;;;;;3.69;100.00;102085.25;5063883;28;20211;-72
2022/03/14 06:11:11;;;;;;;27.47;15.37;;;;;;;3.67;100.00;102097.09;5055098;28;20192;-72
2022/03/14 06:13:39;;;;;;;22.73;11.63;;;;;;;3.41;100.00;102111.41;5050490;28;20665;-72
2022/03/14 06:16:06;;;;;;;24.27;13.23;;;;;;;3.70;100.00;102108.47;5051908;28;20195;-70
2022/03/14 06:18:33;;;;;;;26.97;13.67;;;;;;;3.76;100.00;102113.16;5067704;28;20190;-74
2022/03/14 06:21:01;;;;;;;21.77;12.80;;;;;;;3.92;100.00;102121.22;5071554;28;20660;-72
2022/03/14 06:23:28;;;;;;;32.37;15.67;;;;;;;3.91;100.00;102125.47;5071509;28;20202;-72
2022/03/14 06:25:55;;;;;;;30.53;13.90;;;;;;;3.78;100.00;102121.88;5071755;28;20218;-72
2022/03/14 06:28:23;;;;;;;33.17;14.93;;;;;;;3.75;100.00;102125.09;5056218;28;20199;-73
2022/03/14 06:30:49;;;;;;;23.50;12.23;;;;;;;3.69;100.00;102126.31;5051658;28;20202;-73
2022/03/14 06:33:16;;;;;;;28.77;13.57;;;;;;;3.53;100.00;102123.38;5051382;28;20209;-72
2022/03/14 06:35:43;;;;;;;30.73;17.00;;;;;;;3.78;100.00;102138.13;5053991;28;20193;-72
2022/03/14 06:38:12;;;;;;;37.80;18.43;;;;;;;3.93;100.00;102140.97;5051308;28;20293;-72
2022/03/14 06:40:40;;;;;;;24.90;15.57;;;;;;;4.08;100.00;102144.66;5070949;28;20220;-72
2022/03/14 06:43:06;;;;;;;19.73;12.77;;;;;;;4.26;100.00;102146.03;5070511;28;20206;-73
2022/03/14 06:45:33;;;;;;;22.93;12.73;;;;;;;4.08;100.00;102154.94;5071058;28;20230;-72
2022/03/14 06:48:01;;;;;;;24.13;13.90;;;;;;;4.23;100.00;102156.06;5059516;28;20200;-71
2022/03/14 06:50:29;;;;;;;27.07;14.17;;;;;;;4.34;100.00;102160.31;5051079;28;20666;-72
2022/03/14 06:52:56;;;;;;;44.73;18.50;;;;;;;4.45;100.00;102154.28;5051265;28;20200;-71
2022/03/14 06:55:24;;;;;;;29.53;16.53;;;;;;;4.65;100.00;102163.41;5051412;28;20204;-72
2022/03/14 06:57:51;;;;;;;33.43;15.77;;;;;;;4.47;100.00;102121.88;5051088;28;20296;-71
2022/03/14 07:00:18;;;;;;;30.17;15.80;;;;;;;4.95;100.00;102160.47;5051271;28;20203;-71
2022/03/14 07:02:45;;;;;;;26.23;15.73;;;;;;;5.13;100.00;102163.44;5051275;28;20207;-72
2022/03/14 07:05:17;;;;;;;30.73;15.50;;;;;;;5.46;100.00;102163.19;5051382;28;20207;-72
2022/03/14 07:07:45;;;;;;;25.67;13.20;;;;;;;5.56;100.00;102169.88;5051025;28;20739;-71
2022/03/14 07:10:13;;;;;;;30.23;17.00;;;;;;;5.59;100.00;102169.19;5051028;28;20227;-72
2022/03/14 07:12:46;;;;;;;28.90;14.80;;;;;;;6.12;97.51;102176.28;5050406;28;20674;-71
2022/03/14 07:15:14;;;;;;;38.17;15.83;;;;;;;6.39;93.42;102172.94;5051016;28;20230;-72
2022/03/14 07:17:41;;;;;;;32.97;14.50;;;;;;;6.20;90.18;102157.09;5052182;28;20231;-72
2022/03/14 07:20:10;;;;;;;31.00;15.57;;;;;;;6.17;92.30;102185.19;5054732;28;20784;-72
2022/03/14 07:22:52;;;;;;;31.80;15.17;;;;;;;6.35;94.88;102165.78;5054938;28;20207;-72
2022/03/14 07:25:20;;;;;;;22.50;13.13;;;;;;;6.25;94.89;102162.50;5054791;28;20289;-72
2022/03/14 07:27:49;;;;;;;22.27;11.13;;;;;;;6.86;92.53;102187.97;5054680;28;20282;-72
2022/03/14 07:30:15;;;;;;;23.10;12.53;;;;;;;6.69;88.75;102192.06;5054714;28;20228;-72
2022/03/14 07:32:42;;;;;;;20.17;11.63;;;;;;;5.88;94.06;102143.75;5054412;28;20191;-73
2022/03/14 07:35:10;;;;;;;19.80;11.33;;;;;;;6.56;91.99;102192.09;5054378;28;20669;-72
2022/03/14 07:37:38;;;;;;;18.73;10.57;;;;;;;6.42;89.77;102193.75;5054392;28;20238;-72
2022/03/14 07:40:06;;;;;;;18.13;10.37;;;;;;;6.00;94.02;102196.06;5053466;28;20192;-72
2022/03/14 07:42:33;;;;;;;24.13;11.60;;;;;;;6.33;93.41;102208.59;5052791;28;20204;-72
2022/03/14 07:45:02;;;;;;;21.00;11.50;;;;;;;6.46;93.49;102195.72;5054315;28;20196;-71
2022/03/14 07:47:29;;;;;;;31.57;13.60;;;;;;;6.32;92.75;102205.91;5054084;28;20222;-71
2022/03/14 07:49:56;;;;;;;18.30;9.93;;;;;;;5.79;91.16;102199.72;5053984;28;20215;-71
2022/03/14 07:52:23;;;;;;;20.93;10.77;;;;;;;5.95;91.49;102188.06;5053991;28;20682;-71
2022/03/14 07:54:50;;;;;;;19.07;10.10;;;;;;;5.86;95.03;102201.97;5054066;28;20290;-71
2022/03/14 07:57:16;;;;;;;18.40;9.97;;;;;;;5.43;99.31;102196.41;5054382;28;20199;-72
2022/03/14 07:59:46;;;;;;;19.30;11.50;;;;;;;5.74;98.79;102185.66;5054385;28;20562;-72
2022/03/14 08:02:14;;;;;;;23.30;10.27;;;;;;;5.93;98.46;102202.47;5054219;28;20195;-72
2022/03/14 08:04:42;;;;;;;20.40;10.83;;;;;;;5.75;98.28;102210.59;5054188;28;20199;-72
2022/03/14 08:07:08;;;;;;;21.23;11.27;;;;;;;6.07;94.64;102205.97;5054227;28;20195;-72
2022/03/14 08:09:35;;;;;;;19.47;10.73;;;;;;;6.18;94.60;102219.56;5053816;28;20219;-72
2022/03/14 08:12:05;;;;;;;13.20;9.13;;;;;;;6.06;87.66;102214.50;5054170;28;20194;-72
2022/03/14 08:14:31;;;;;;;15.77;10.37;;;;;;;6.02;89.03;102212.53;5053488;28;20585;-71
2022/03/14 08:16:58;;;;;;;16.50;9.87;;;;;;;6.02;83.69;102215.09;5054013;28;20199;-72
2022/03/14 08:19:27;;;;;;;15.70;8.23;;;;;;;5.88;85.93;102215.84;5053714;28;20630;-71
2022/03/14 08:21:56;;;;;;;21.20;10.37;;;;;;;5.73;89.74;102186.44;5053479;28;20188;-72
2022/03/14 08:24:23;;;;;;;18.60;10.37;;;;;;;6.08;89.21;102212.94;5053910;28;20282;-72
2022/03/14 08:26:53;;;;;;;17.13;9.97;;;;;;;5.86;83.43;102178.78;5053395;28;20685;-71
2022/03/14 08:29:20;;;;;;;15.37;8.27;;;;;;;5.74;81.04;102216.56;5053191;28;20314;-72
2022/03/14 08:31:47;;;;;;;16.10;9.50;;;;;;;5.84;80.00;102188.97;5053418;28;20203;-72
2022/03/14 08:34:15;;;;;;;20.47;9.90;;;;;;;6.15;78.81;102212.53;5053433;28;20694;-72
2022/03/14 08:36:44;;;;;;;15.53;8.57;;;;;;;6.34;75.41;102219.81;5053442;28;20192;-71
2022/03/14 08:39:11;;;;;;;11.97;7.50;;;;;;;5.97;73.84;102201.00;5053573;28;20188;-72
2022/03/14 08:41:39;;;;;;;19.43;9.03;;;;;;;6.12;74.03;102199.47;5053517;28;20208;-73
2022/03/14 08:44:06;;;;;;;15.57;8.13;;;;;;;5.90;73.48;102217.72;5052812;28;20604;-73
2022/03/14 08:46:34;;;;;;;13.37;7.40;;;;;;;5.90;71.77;102211.69;5052750;28;20231;-72
2022/03/14 08:49:01;;;;;;;18.23;9.00;;;;;;;6.07;71.57;102226.56;5039498;28;20199;-71
2022/03/14 08:51:28;;;;;;;13.00;7.43;;;;;;;5.96;69.93;102206.94;5033400;28;20207;-72
2022/03/14 08:53:56;;;;;;;15.60;8.53;;;;;;;6.01;71.51;102222.69;5033168;28;20196;-72
2022/03/14 08:56:23;;;;;;;12.83;8.20;;;;;;;6.06;70.13;102216.19;5032983;28;20759;-72
2022/03/14 08:58:50;;;;;;;15.63;9.13;;;;;;;6.09;69.40;102209.56;5032793;28;20670;-71
2022/03/14 09:01:17;;;;;;;16.83;7.70;;;;;;;5.93;68.23;102175.84;5032842;28;20207;-71
2022/03/14 09:03:43;;;;;;;9.50;6.57;;;;;;;5.94;65.04;102185.34;5032811;28;20192;-72
2022/03/14 09:06:10;;;;;;;18.27;10.13;;;;;;;6.27;65.03;102217.63;5032686;28;20192;-71
2022/03/14 09:08:37;;;;;;;19.27;9.23;;;;;;;6.06;63.22;102211.03;5033202;28;20195;-72
2022/03/14 09:11:05;;;;;;;27.30;9.03;;;;;;;5.78;64.92;102167.94;5032496;28;20710;-72
2022/03/14 09:13:32;;;;;;;18.20;8.63;;;;;;;6.08;64.21;102179.44;5031892;28;20233;-72
2022/03/14 09:15:59;;;;;;;26.33;8.73;;;;;;;6.49;65.11;102211.38;5032487;28;20207;-72
2022/03/14 09:18:31;;;;;;;7.80;5.80;;;;;;;6.24;63.79;102217.44;5032984;28;20589;-72
2022/03/14 09:20:58;;;;;;;15.60;8.70;;;;;;;6.25;64.75;102212.34;5032654;28;20219;-73
2022/03/14 09:23:26;;;;;;;14.23;8.50;;;;;;;6.29;64.54;102216.03;5032404;28;20199;-71
2022/03/14 09:25:55;;;;;;;9.93;7.40;;;;;;;6.39;64.70;102210.69;5032386;28;20202;-72
2022/03/14 09:28:23;;;;;;;15.20;8.30;;;;;;;6.55;64.69;102212.59;5032318;28;20231;-71
2022/03/14 09:30:50;;;;;;;13.27;6.97;;;;;;;6.56;63.32;102201.50;5032438;28;20224;-72
2022/03/14 09:33:16;;;;;;;19.00;9.53;;;;;;;6.67;62.76;102211.69;5032245;28;20671;-72
2022/03/14 09:35:43;;;;;;;15.47;8.67;;;;;;;6.72;63.50;102212.00;5032240;28;20670;-72
2022/03/14 09:38:13;;;;;;;19.63;8.87;;;;;;;6.68;63.70;102207.44;5032446;28;20200;-72
2022/03/14 09:40:42;;;;;;;10.10;6.50;;;;;;;6.64;62.90;102215.75;5031712;28;20583;-70
2022/03/14 09:43:10;;;;;;;9.33;6.27;;;;;;;6.55;60.99;102217.75;5030952;28;20204;-71
2022/03/14 09:45:40;;;;;;;14.20;7.73;;;;;;;6.61;62.73;102205.25;5032260;28;20293;-72
2022/03/14 09:48:11;;;;;;;16.23;7.27;;;;;;;6.69;61.17;102204.06;5032060;28;20242;-72
2022/03/14 09:50:40;;;;;;;10.97;6.87;;;;;;;6.94;59.78;102217.72;5031812;28;20278;-72
2022/03/14 09:53:09;;;;;;;9.50;7.00;;;;;;;6.93;58.02;102210.78;5032157;28;20195;-72
2022/03/14 09:55:43;;;;;;;8.87;5.80;;;;;;;6.92;57.80;102209.03;5032296;28;20192;-73
2022/03/14 09:58:11;;;;;;;9.20;6.53;;;;;;;6.90;57.27;102210.59;5032014;28;20192;-71
2022/03/14 10:00:40;;;;;;;13.63;5.57;;;;;;;6.77;56.66;102197.72;5031859;28;20678;-72
2022/03/14 10:03:07;;;;;;;18.20;9.00;;;;;;;7.02;56.90;102205.31;5032021;28;20579;-72
2022/03/14 10:05:34;;;;;;;7.60;4.60;;;;;;;6.95;55.66;102209.22;5031992;28;20199;-72
2022/03/14 10:08:01;;;;;;;14.73;7.43;;;;;;;7.04;55.33;102199.47;5032004;28;20203;-73
2022/03/14 10:10:28;;;;;;;12.57;6.73;;;;;;;7.17;55.00;102203.72;5031655;28;20322;-72
2022/03/14 10:12:57;;;;;;;16.30;8.13;;;;;;;7.25;55.04;102177.56;5031218;28;20200;-72
2022/03/14 10:15:25;;;;;;;9.00;6.63;;;;;;;7.44;53.99;102188.25;5032015;28;20200;-72
2022/03/14 10:17:54;;;;;;;27.63;10.83;;;;;;;7.42;52.91;102194.09;5031567;28;20188;-73
2022/03/14 10:20:22;;;;;;;11.33;6.97;;;;;;;7.32;53.42;102202.97;5031606;28;20232;-73
2022/03/14 10:22:49;;;;;;;9.17;6.63;;;;;;;7.65;52.98;102198.06;5031573;28;20668;-73
2022/03/14 10:25:18;;;;;;;9.63;6.30;;;;;;;7.79;52.88;102195.53;5031580;28;20203;-72
2022/03/14 10:27:49;;;;;;;9.30;6.13;;;;;;;7.48;53.27;102167.00;5031668;28;20677;-73
2022/03/14 10:30:25;;;;;;;8.87;5.70;;;;;;;7.74;52.32;102189.19;5031590;28;20258;-73
2022/03/14 10:32:57;;;;;;;11.27;7.47;;;;;;;7.87;55.32;102196.00;5031655;28;20218;-72
2022/03/14 10:35:25;;;;;;;9.63;7.50;;;;;;;7.85;54.06;102189.81;5031748;28;20203;-72
2022/03/14 10:37:58;;;;;;;11.20;6.83;;;;;;;7.87;52.30;102175.31;5031327;28;20202;-73
2022/03/14 10:40:30;;;;;;;13.03;7.10;;;;;;;7.96;52.60;102188.78;5031457;28;20666;-74
2022/03/14 10:42:57;;;;;;;10.83;7.40;;;;;;;8.08;52.50;102181.75;5031064;28;20290;-74
2022/03/14 10:45:24;;;;;;;11.40;6.07;;;;;;;8.07;51.31;102159.28;5031389;28;20311;-73
2022/03/14 10:47:56;;;;;;;9.33;6.23;;;;;;;8.20;50.25;102177.31;5031697;28;20203;-73
2022/03/14 10:50:32;;;;;;;9.13;6.10;;;;;;;8.46;49.17;102186.56;5031529;28;20323;-72
2022/03/14 10:53:08;;;;;;;8.73;6.07;;;;;;;8.43;49.36;102142.47;5033671;28;20597;-74
2022/03/14 10:55:36;;;;;;;9.27;6.03;;;;;;;8.85;49.10;102151.69;5035729;28;20274;-73
2022/03/14 10:58:11;;;;;;;10.33;6.03;;;;;;;9.10;45.76;102174.63;5035620;28;20195;-73
2022/03/14 11:00:45;;;;;;;9.70;6.45;;;;;;;9.18;47.05;102169.06;5035647;28;20200;-74
2022/03/14 11:03:22;;;;;;;11.75;6.25;;;;;;;9.15;48.32;102179.25;5035059;28;20274;-74
2022/03/14 11:05:48;;;;;;;12.13;6.82;;;;;;;9.27;48.36;102167.00;5035355;28;20203;-72
2022/03/14 11:08:29;;;;;;;7.28;5.30;;;;;;;9.49;42.93;102160.38;5034971;28;20196;-74
2022/03/14 11:10:56;;;;;;;9.45;5.40;;;;;;;9.93;43.13;102179.09;5035119;28;20227;-73
2022/03/14 11:13:23;;;;;;;12.40;5.40;;;;;;;9.72;44.93;102171.09;5034318;28;20645;-72
2022/03/14 11:15:50;;;;;;;10.75;6.63;;;;;;;9.85;43.33;102162.25;5035309;28;20200;-75
2022/03/14 11:18:20;;;;;;;12.25;6.63;;;;;;;10.31;42.17;102171.56;5035061;28;20204;-73